createdAt,value
2023-04-23T00:11:47.650Z,100.00
2023-04-23T00:26:49.215Z,100.00
2023-04-23T00:41:50.828Z,100.00
2023-04-23T00:56:52.395Z,100.00
2023-04-23T01:11:54.009Z,100.00
2023-04-23T01:26:55.606Z,100.00
2023-04-23T01:41:57.597Z,100.00
2023-04-23T01:56:59.291Z,100.00
2023-04-23T02:12:01.984Z,100.00
2023-04-23T02:27:03.730Z,100.00
2023-04-23T02:42:05.323Z,100.00
2023-04-23T02:57:07.025Z,100.00
2023-04-23T03:12:09.859Z,100.00
2023-04-23T03:27:11.709Z,100.00
2023-04-23T03:42:13.953Z,100.00
2023-04-23T03:57:16.480Z,100.00
2023-04-23T04:12:51.299Z,100.00
2023-04-23T04:27:52.977Z,100.00
2023-04-23T04:42:55.275Z,100.00
2023-04-23T04:57:56.962Z,100.00
2023-04-23T05:12:58.620Z,100.00
2023-04-23T05:28:00.212Z,100.00
2023-04-23T05:43:02.203Z,100.00
2023-04-23T05:58:05.213Z,100.00
2023-04-23T06:13:06.821Z,100.00
2023-04-23T06:28:08.444Z,100.00
2023-04-23T06:43:21.273Z,100.00
2023-04-23T06:58:45.738Z,100.00
2023-04-23T07:13:53.358Z,100.00
2023-04-23T07:28:54.989Z,100.00
2023-04-23T07:43:56.780Z,100.00
2023-04-23T07:58:58.822Z,100.00
2023-04-23T08:14:01.694Z,100.00
2023-04-23T08:29:03.448Z,100.00
2023-04-23T08:44:05.025Z,100.00
2023-04-23T08:59:06.830Z,100.00
2023-04-23T09:14:08.429Z,100.00
2023-04-23T09:29:09.997Z,100.00
2023-04-23T09:44:14.020Z,100.00
2023-04-23T09:59:15.634Z,100.00
2023-04-23T10:14:17.246Z,100.00
2023-04-23T10:29:19.044Z,100.00
2023-04-23T10:44:42.259Z,100.00
2023-04-23T10:59:46.641Z,87.31
2023-04-23T11:14:48.392Z,85.25
2023-04-23T11:29:49.996Z,71.06
2023-04-23T12:15:39.025Z,53.23
2023-04-23T12:30:40.772Z,49.02
2023-04-23T12:45:42.460Z,49.85
2023-04-23T13:00:44.118Z,53.84
2023-04-23T13:15:45.720Z,59.76
2023-04-23T13:30:47.396Z,56.94
2023-04-23T13:45:49.018Z,58.51
2023-04-23T14:00:50.774Z,55.74
2023-04-23T14:15:52.536Z,54.00
2023-04-23T14:30:54.168Z,51.25
2023-04-23T14:45:55.793Z,54.09
2023-04-23T15:00:57.511Z,53.78
2023-04-23T15:16:02.462Z,54.05
2023-04-23T15:31:04.124Z,49.60
2023-04-23T15:46:05.927Z,51.23
2023-04-23T16:01:09.896Z,52.27
2023-04-23T16:16:11.592Z,53.82
2023-04-23T16:31:13.371Z,59.67
2023-04-23T16:46:25.337Z,100.00
2023-04-23T17:01:27.424Z,100.00
2023-04-23T17:16:29.295Z,100.00
2023-04-23T17:31:31.053Z,100.00
2023-04-23T17:46:32.796Z,100.00
2023-04-23T18:01:35.050Z,100.00
2023-04-23T18:16:36.765Z,100.00
2023-04-23T18:31:38.392Z,100.00
2023-04-23T18:46:42.939Z,100.00
2023-04-23T19:01:46.422Z,100.00
2023-04-23T19:16:48.259Z,100.00
2023-04-23T19:31:50.028Z,100.00
2023-04-23T19:46:51.725Z,100.00
2023-04-23T20:01:53.318Z,100.00
2023-04-23T20:16:54.964Z,100.00
2023-04-23T20:31:56.599Z,100.00
2023-04-23T20:46:58.230Z,100.00
2023-04-23T21:01:59.874Z,100.00
2023-04-23T21:17:01.506Z,100.00
2023-04-23T21:32:03.115Z,100.00
2023-04-23T21:47:04.957Z,100.00
2023-04-23T22:02:06.737Z,100.00
2023-04-23T22:17:09.268Z,100.00
2023-04-23T22:32:10.985Z,100.00
2023-04-23T22:47:12.585Z,100.00
2023-04-23T23:02:14.271Z,100.00
2023-04-23T23:17:15.940Z,100.00
2023-04-23T23:32:17.509Z,100.00
2023-04-23T23:47:19.135Z,100.00
